< < Back
Terminal Aerodrome Forecast


Current Version              Previous Versions:   1  2  3  4  5  6  7  8  9  

Terminal Aerodrome Forecast

605
FTUS42 KFFC 231100
TAFATL
TAF
KATL 231120Z 2312/2418 06010G20KT P6SM SCT020 SCT040
      TEMPO 2313/2315 BKN040
     FM231600 07012G20KT P6SM SCT045
     FM240100 07012G18KT P6SM SCT040
     FM241400 07012G20KT P6SM FEW020 SCT045=



Latest METAR

683
SAUS70 KWBC 231600 RRA
MTRATL
METAR KATL 231552Z 09010KT 10SM BKN035 21/13 A3023 RMK AO2 SLP231
T02110128


USA.gov is the U.S. government's official web portal to all federal, state and local government web resources and services.